Nearby METAR Reports

 

KGSP - Greer/Spartansbg, South Carolina, USA
Distance from station: E 4mi, 6km
Updated: Mon, 03-Oct-2022 9:53pm EDT
Mostly cloudy
Mostly cloudy
 Wind from N
Wind: N 5 mph , 7 km/h
Temperature: 61°F , 16°C
Dew Point: 52°F , 11°C
Humidity: 72%
Barometer: 30.15 inHg , 1021 hPa
Clouds: Mostly cloudy
Visibility: 10 miles , 16 km
Cloud details: Partly cloudy 4500 ft
Mostly cloudy 7000 ft
2022/10/04 01:53 KGSP 040153Z 36004KT 10SM SCT045 BKN070 16/11 A3015 RMK AO2 SLP202 T01610111
KGMU - Greenville, South Carolina, USA
Distance from station: SW 5mi, 8km
Updated: Mon, 03-Oct-2022 9:53pm EDT
Mostly cloudy
Mostly cloudy
 Wind from N
Wind: N 9 mph , 15 km/h
Temperature: 63°F , 17°C
Dew Point: 52°F , 11°C
Humidity: 68%
Barometer: 30.15 inHg , 1021 hPa
Clouds: Mostly cloudy
Visibility: 10 miles , 16 km
Cloud details: Few Clouds 4300 ft
Mostly cloudy 5000 ft
2022/10/04 01:53 KGMU 040153Z AUTO 01008KT 10SM FEW043 BKN050 17/11 A3015 RMK AO2 SLP205 T01670111
 
KGYH - Greenville, South Carolina, USA
Distance from station: SSW 11mi, 18km
Updated: Mon, 03-Oct-2022 10:35pm EDT
Clear
Clear
 Wind from NNE
Wind: NNE 7 mph , 11 km/h
Temperature: 61°F , 16°C
Dew Point: 52°F , 11°C
Humidity: 72%
Barometer: 30.15 inHg , 1021 hPa
Clouds: Clear
Visibility: 10 miles , 16 km
2022/10/04 02:35 KGYH 040235Z AUTO 02006KT 10SM CLR 16/11 A3015 RMK A02 T01550113
KSPA - Spartanburg, South Carolina, USA
Distance from station: E 20mi, 32km
Updated: Mon, 03-Oct-2022 10:35pm EDT
Overcast
Overcast
 Wind from NNE
Wind: NNE 7 mph , 11 km/h
Temperature: 63°F , 17°C
Dew Point: 52°F , 11°C
Humidity: 68%
Barometer: 30.15 inHg , 1021 hPa
Clouds: Overcast
Visibility: 10 miles , 16 km
Cloud details: Mostly cloudy 4100 ft
Overcast 4800 ft
2022/10/04 02:35 KSPA 040235Z AUTO 02006KT 10SM BKN041 OVC048 17/11 A3015 RMK AO2
 
KLQK - Pickens, South Carolina, USA
Distance from station: WSW 24mi, 39km
Updated: Mon, 03-Oct-2022 10:35pm EDT
Partly cloudy
Partly cloudy
 
Temperature: 59°F , 15°C
Dew Point: 54°F , 12°C
Humidity: 82%
Barometer: 30.14 inHg , 1020.7 hPa
Clouds: Partly cloudy
Visibility: 10 miles , 16 km
Cloud details: Partly cloudy 4000 ft
Partly cloudy 4600 ft
2022/10/04 02:35 KLQK 040235Z AUTO 10SM SCT040 SCT046 15/12 A3014 RMK AO2 T01450119
KLUX - Laurens, South Carolina, USA
Distance from station: SE 33mi, 54km
Updated: Mon, 03-Oct-2022 10:35pm EDT
Overcast
Overcast
 Wind from ENE
Wind: ENE 3 mph , 6 km/h
Temperature: 57°F , 14°C
Dew Point: 55°F , 13°C
Humidity: 94%
Barometer: 30.14 inHg , 1020.7 hPa
Clouds: Overcast
Visibility: 10 miles , 16 km
Cloud details: Mostly cloudy 5000 ft
Overcast 7000 ft
2022/10/04 02:35 KLUX 040235Z AUTO 06003KT 10SM BKN050 OVC070 14/13 A3014 RMK AO2
 
KAND - Anderson, South Carolina, USA
Distance from station: SW 37mi, 59km
Updated: Mon, 03-Oct-2022 9:56pm EDT
Few Clouds
Few Clouds
 Wind from NE
Wind: NE 6 mph , 9 km/h
Temperature: 63°F , 17°C
Dew Point: 54°F , 12°C
Humidity: 73%
Barometer: 30.13 inHg , 1020.3 hPa
Clouds: Few Clouds
Visibility: 10 miles , 16 km
Cloud details: Few Clouds 4200 ft
2022/10/04 01:56 KAND 040156Z AUTO 04005KT 10SM FEW042 17/12 A3013 RMK AO2 SLP197 T01720122
KCEU - Clemson, South Carolina, USA
Distance from station: WSW 37mi, 60km
Updated: Mon, 03-Oct-2022 9:54pm EDT
Mostly cloudy
Mostly cloudy
 Wind from varies
Wind: varies 5 mph , 7 km/h
Temperature: 63°F , 17°C
Dew Point: 54°F , 12°C
Humidity: 73%
Barometer: 30.14 inHg , 1020.7 hPa
Clouds: Mostly cloudy
Visibility: 10 miles , 16 km
Cloud details: Mostly cloudy 4700 ft
2022/10/04 01:54 KCEU 040154Z AUTO VRB04KT 10SM BKN047 17/12 A3014 RMK AO2 SLP200 T01720122
 
KAVL - Asheville, North Carolina, USA
Distance from station: NNW 40mi, 64km
Updated: Mon, 03-Oct-2022 9:54pm EDT
Partly cloudy
Partly cloudy
 Wind from NNW
Wind: NNW 9 mph , 15 km/h
Temperature: 54°F , 12°C
Dew Point: 46°F , 8°C
Humidity: 77%
Barometer: 30.20 inHg , 1022.7 hPa
Clouds: Partly cloudy
Visibility: 10 miles , 16 km
Cloud details: Few Clouds 3000 ft
Partly cloudy 4600 ft
2022/10/04 01:54 KAVL 040154Z 33008KT 10SM FEW030 SCT046 12/08 A3020 RMK AO2 SLP215 T01220083
KFQD - Rutherfordton, North Carolina, USA
Distance from station: NNE 41mi, 66km
Updated: Mon, 03-Oct-2022 10:35pm EDT
Partly cloudy
Partly cloudy
 Wind from NE
Wind: NE 3 mph , 6 km/h
Temperature: 55°F , 13°C
Dew Point: 50°F , 10°C
Humidity: 82%
Barometer: 30.17 inHg , 1021.7 hPa
Clouds: Partly cloudy
Visibility: 10 miles , 16 km
Cloud details: Partly cloudy 4300 ft
2022/10/04 02:35 KFQD 040235Z AUTO 04003KT 10SM SCT043 13/10 A3017 RMK AO2
 
KGRD - Greenwood, South Carolina, USA
Distance from station: S 45mi, 73km
Updated: Mon, 03-Oct-2022 9:56pm EDT
Mostly cloudy
Mostly cloudy
 Wind from calm
Wind: Calm
Temperature: 55°F , 13°C
Dew Point: 54°F , 12°C
Humidity: 94%
Barometer: 30.13 inHg , 1020.3 hPa
Clouds: Mostly cloudy
Visibility: 10 miles , 16 km
Cloud details: Mostly cloudy 6000 ft
2022/10/04 01:56 KGRD 040156Z AUTO 00000KT 10SM BKN060 13/12 A3013 RMK AO2 SLP201 T01330122
KEHO - Shelby Muni, North Carolina, USA
Distance from station: ENE 46mi, 74km
Updated: Mon, 03-Oct-2022 10:35pm EDT
Clear
Clear
 Wind from calm
Wind: Calm
Temperature: 57°F , 14°C
Dew Point: 52°F , 11°C
Humidity: 82%
Barometer: 30.16 inHg , 1021.3 hPa
Clouds: Clear
Visibility: 10 miles , 16 km
2022/10/04 02:35 KEHO 040235Z AUTO 00000KT 10SM CLR 14/11 A3016 RMK AO2 T01440110